Agency, Missouri
Current Conditions -  °F | °C
As of 9:53 AM on Friday 19 Dec 2014 (Local Time) from KSTJ Reporting Station
Haze Haze  
Wind Chill: 30°   Ceiling: 600
Heat Index: 30°   Visibility: 6mi
Dew Point: 28°   Wind: 3mph
Humidity: 92%   Direction: 140°SE
Pressure: 30.3"   Gusts: NA
Location:  39.64°N, 94.74°W
Report Text: KSTJ 191553Z 14003KT 6SM BR OVC006 M01/M02 A3030 RMK AO2 SLP267 T10111022
Loading
Personal Weather Stations






























Interactive Weather Map New forecast layout! Learn more

10-Day Weather Forecast

Advertisements
Track Severe Weather on mobile